Time;durP1;ratioP1;P1;durP2;ratioP2;P2;SDS_P1;SDS_P2;PMS_P1;PMS_P2;Temp;Humidity;BMP_temperature;BMP_pressure;BME280_temperature;BME280_humidity;BME280_pressure;Samples;Min_cycle;Max_cycle;Signal;HPM_P1;HPM_P2
2023/12/18 00:00:38;;;;;;;;;;;;;;;1.21;100.00;101361.22;4958271;28;19933;-78
2023/12/18 00:03:03;;;;;;;;;;;;;;;1.39;100.00;101350.09;4944033;28;19922;-79
2023/12/18 00:05:29;;;;;;;;;;;;;;;1.39;100.00;101349.25;4944631;28;20356;-78
2023/12/18 00:07:54;;;;;;;;;;;;;;;1.29;100.00;101354.81;4962065;28;20366;-79
2023/12/18 00:10:19;;;;;;;;;;;;;;;1.56;100.00;101345.63;4963770;28;19929;-78
2023/12/18 00:12:45;;;;;;;;;;;;;;;1.26;100.00;101359.69;4969707;28;19918;-78
2023/12/18 00:15:10;;;;;;;;;;;;;;;1.48;100.00;101347.91;4944892;28;19926;-78
2023/12/18 00:17:36;;;;;;;;;;;;;;;1.04;100.00;101370.69;4960567;28;20464;-78
2023/12/18 00:20:02;;;;;;;;;;;;;;;1.23;100.00;101362.94;4963848;28;19918;-78
2023/12/18 00:22:27;;;;;;;;;;;;;;;1.10;100.00;101365.88;4966265;28;19989;-80
2023/12/18 00:24:52;;;;;;;;;;;;;;;1.18;100.00;101359.47;4965230;28;19922;-79
2023/12/18 00:27:18;;;;;;;;;;;;;;;0.87;100.00;101371.78;4963416;28;19944;-78
2023/12/18 00:29:43;;;;;;;;;;;;;;;1.07;100.00;101365.75;4967900;28;19918;-79
2023/12/18 00:32:08;;;;;;;;;;;;;;;1.18;100.00;101359.47;4963473;28;19922;-78
2023/12/18 00:34:34;;;;;;;;;;;;;;;1.00;100.00;101371.38;4951976;28;20392;-76
2023/12/18 00:36:59;;;;;;;;;;;;;;;1.07;100.00;101369.94;4965689;28;21424;-78
2023/12/18 00:39:24;;;;;;;;;;;;;;;1.24;100.00;101362.16;4964168;28;19946;-76
2023/12/18 00:41:51;;;;;;;;;;;;;;;1.36;100.00;101360.03;4964292;28;19969;-77
2023/12/18 00:44:17;;;;;;;;;;;;;;;1.36;100.00;101366.69;4964328;28;19925;-79
2023/12/18 00:46:42;;;;;;;;;;;;;;;1.17;100.00;101379.47;4956375;28;19950;-79
2023/12/18 00:49:07;;;;;;;;;;;;;;;1.19;100.00;101375.34;4962790;28;19919;-78
2023/12/18 00:51:33;;;;;;;;;;;;;;;1.29;100.00;101367.31;4945532;28;19922;-78
2023/12/18 00:53:58;;;;;;;;;;;;;;;1.20;100.00;101365.38;4961488;28;20440;-78
2023/12/18 00:56:23;;;;;;;;;;;;;;;0.89;100.00;101367.69;4963793;28;19929;-79
2023/12/18 00:58:49;;;;;;;;;;;;;;;1.07;100.00;101365.75;4961821;28;19917;-80
2023/12/18 01:01:14;;;;;;;;;;;;;;;0.94;100.00;101360.31;4963133;28;19938;-80
2023/12/18 01:03:39;;;;;;;;;;;;;;;1.12;100.00;101349.25;4945901;28;19922;-79
2023/12/18 01:06:05;;;;;;;;;;;;;;;1.02;100.00;101367.28;4941769;28;19921;-79
2023/12/18 01:08:30;;;;;;;;;;;;;;;1.05;100.00;101362.34;4936133;29;19918;-78
2023/12/18 01:10:56;;;;;;;;;;;;;;;0.82;100.00;101366.63;4962013;28;20016;-79
2023/12/18 01:13:21;;;;;;;;;;;;;;;1.00;100.00;101356.38;4947505;28;19925;-79
2023/12/18 01:15:47;;;;;;;;;;;;;;;0.77;100.00;101360.59;4946991;28;19918;-78
2023/12/18 01:18:12;;;;;;;;;;;;;;;0.95;100.00;101364.53;4959854;28;19918;-79
2023/12/18 01:20:37;;;;;;;;;;;;;;;0.95;100.00;101357.03;4942796;28;19970;-79
2023/12/18 01:23:03;;;;;;;;;;;;;;;0.80;100.00;101363.22;4965184;28;19918;-78
2023/12/18 01:25:28;;;;;;;;;;;;;;;1.00;100.00;101351.34;4960547;28;19925;-78
2023/12/18 01:27:54;;;;;;;;;;;;;;;0.74;100.00;101353.00;4963602;28;19932;-79
2023/12/18 01:30:19;;;;;;;;;;;;;;;0.80;100.00;101352.34;4963054;28;19917;-78
2023/12/18 01:32:44;;;;;;;;;;;;;;;0.75;100.00;101358.88;4963705;28;19970;-79
2023/12/18 01:35:10;;;;;;;;;;;;;;;1.07;100.00;101355.75;4957302;28;19965;-79
2023/12/18 01:37:35;;;;;;;;;;;;;;;0.75;100.00;101363.88;4964806;28;19918;-79
2023/12/18 01:40:01;;;;;;;;;;;;;;;0.84;100.00;101357.50;4961819;28;20472;-80
2023/12/18 01:42:26;;;;;;;;;;;;;;;0.80;100.00;101359.84;4959871;28;20389;-78
2023/12/18 01:44:51;;;;;;;;;;;;;;;0.94;100.00;101361.16;4957436;28;19925;-79
2023/12/18 01:47:17;;;;;;;;;;;;;;;0.91;100.00;101371.09;4950759;28;19919;-79
2023/12/18 01:49:43;;;;;;;;;;;;;;;0.92;100.00;101367.78;4961831;28;19951;-79
2023/12/18 01:52:08;;;;;;;;;;;;;;;0.70;100.00;101371.22;4958277;28;19950;-78
2023/12/18 01:54:45;;;;;;;;;;;;;;;0.68;100.00;101366.94;4949958;28;19925;-79
2023/12/18 01:57:12;;;;;;;;;;;;;;;0.83;100.00;101353.28;4959905;28;19922;-78
2023/12/18 01:59:38;;;;;;;;;;;;;;;0.80;100.00;101357.34;4945091;28;19925;-78
2023/12/18 02:02:03;;;;;;;;;;;;;;;0.75;100.00;101349.69;4943298;28;20316;-77
2023/12/18 02:04:29;;;;;;;;;;;;;;;0.64;100.00;101357.63;4945388;28;19963;-77
2023/12/18 02:06:56;;;;;;;;;;;;;;;0.83;100.00;101348.28;4944764;28;19922;-79
2023/12/18 02:09:21;;;;;;;;;;;;;;;0.79;100.00;101343.16;4947485;28;19918;-77
2023/12/18 02:11:47;;;;;;;;;;;;;;;0.73;100.00;101348.78;4948681;28;19925;-78
2023/12/18 02:14:12;;;;;;;;;;;;;;;0.81;100.00;101341.56;4968289;28;19922;-78
2023/12/18 02:16:38;;;;;;;;;;;;;;;0.79;100.00;101343.97;4964794;28;20408;-77
2023/12/18 02:19:03;;;;;;;;;;;;;;;0.77;100.00;101329.75;4970184;28;19918;-76
2023/12/18 02:21:28;;;;;;;;;;;;;;;0.68;100.00;101329.41;4964720;28;19973;-77
2023/12/18 02:23:54;;;;;;;;;;;;;;;0.67;100.00;101332.75;4953998;28;19946;-78
2023/12/18 02:26:20;;;;;;;;;;;;;;;0.69;100.00;101333.63;4950410;28;19922;-77
2023/12/18 02:28:45;;;;;;;;;;;;;;;0.80;100.00;101323.19;4963867;28;19999;-78
2023/12/18 02:31:14;;;;;;;;;;;;;;;0.80;100.00;101323.19;4965096;28;19997;-78
2023/12/18 02:33:40;;;;;;;;;;;;;;;0.89;100.00;101318.47;4956460;28;19918;-77
2023/12/18 02:36:06;;;;;;;;;;;;;;;0.76;100.00;101335.53;4967381;28;19926;-76
2023/12/18 02:38:31;;;;;;;;;;;;;;;0.65;100.00;101335.16;4965324;28;19977;-77
2023/12/18 02:40:57;;;;;;;;;;;;;;;0.56;100.00;101346.50;4962777;28;20157;-77
2023/12/18 02:43:22;;;;;;;;;;;;;;;0.54;100.00;101343.97;4966050;28;19929;-77
2023/12/18 02:45:47;;;;;;;;;;;;;;;0.72;100.00;101338.72;4965975;28;19918;-79
2023/12/18 02:48:13;;;;;;;;;;;;;;;0.46;100.00;101350.34;4954981;28;19940;-78
2023/12/18 02:50:38;;;;;;;;;;;;;;;0.36;100.00;101353.34;4949978;28;19922;-79
2023/12/18 02:53:04;;;;;;;;;;;;;;;0.64;100.00;101325.97;4966718;28;19949;-77
2023/12/18 02:55:29;;;;;;;;;;;;;;;0.39;100.00;101327.59;4947211;28;19918;-78
2023/12/18 02:57:55;;;;;;;;;;;;;;;0.63;100.00;101313.41;4945494;28;19925;-76
2023/12/18 03:00:20;;;;;;;;;;;;;;;0.38;100.00;101321.72;4964887;28;20383;-78
2023/12/18 03:02:45;;;;;;;;;;;;;;;0.71;100.00;101304.53;4948299;28;19925;-76
2023/12/18 03:05:11;;;;;;;;;;;;;;;0.57;100.00;101311.56;4963113;28;19926;-77
2023/12/18 03:07:36;;;;;;;;;;;;;;;0.58;100.00;101323.25;4966346;28;20282;-77
2023/12/18 03:10:02;;;;;;;;;;;;;;;0.19;100.00;101331.03;4961896;28;19918;-77
2023/12/18 03:12:28;;;;;;;;;;;;;;;0.20;100.00;101330.25;4948508;28;19917;-76
2023/12/18 03:14:56;;;;;;;;;;;;;;;0.33;100.00;101324.88;4950594;28;20041;-77
2023/12/18 03:17:22;;;;;;;;;;;;;;;0.40;100.00;101322.63;4947115;28;19918;-77
2023/12/18 03:19:47;;;;;;;;;;;;;;;0.24;100.00;101324.56;4968846;28;19918;-76
2023/12/18 03:22:13;;;;;;;;;;;;;;;0.51;100.00;101313.00;4964012;28;19919;-79
2023/12/18 03:24:40;;;;;;;;;;;;;;;0.43;100.00;101309.41;4948292;28;20005;-77
2023/12/18 03:27:09;;;;;;;;;;;;;;;0.16;100.00;101310.94;4965973;28;19922;-78
2023/12/18 03:29:35;;;;;;;;;;;;;;;0.82;100.00;101266.53;4963692;28;20338;-76
2023/12/18 03:32:00;;;;;;;;;;;;;;;0.59;100.00;101281.59;4958630;28;20006;-77
2023/12/18 03:34:26;;;;;;;;;;;;;;;0.48;100.00;101282.88;4962496;28;19914;-76
2023/12/18 03:36:52;;;;;;;;;;;;;;;0.43;100.00;101291.88;4967364;28;19949;-77
2023/12/18 03:39:17;;;;;;;;;;;;;;;0.58;100.00;101294.88;4960204;28;19919;-77
2023/12/18 03:41:42;;;;;;;;;;;;;;;0.60;100.00;101293.28;4938780;28;19925;-77
2023/12/18 03:44:08;;;;;;;;;;;;;;;0.72;100.00;101283.69;4961546;28;19918;-78
2023/12/18 03:46:33;;;;;;;;;;;;;;;0.23;100.00;101303.72;4961254;28;19926;-76
2023/12/18 03:48:58;;;;;;;;;;;;;;;0.35;100.00;101300.78;4957989;28;19921;-79
2023/12/18 03:51:24;;;;;;;;;;;;;;;0.46;100.00;101294.47;4962273;28;19974;-78
2023/12/18 03:53:49;;;;;;;;;;;;;;;0.63;100.00;101296.78;4954862;28;19968;-76
2023/12/18 03:56:15;;;;;;;;;;;;;;;0.45;100.00;101307.78;4960967;28;20029;-78
2023/12/18 03:58:40;;;;;;;;;;;;;;;0.49;100.00;101317.09;4938949;28;20301;-75
2023/12/18 04:01:08;;;;;;;;;;;;;;;0.30;100.00;101323.13;4961565;28;19925;-75
2023/12/18 04:04:05;;;;;;;;;;;;;;;0.67;100.00;101292.72;4954398;28;20000;-76
2023/12/18 04:06:35;;;;;;;;;;;;;;;0.40;100.00;101305.13;4954032;28;19978;-75
2023/12/18 04:09:03;;;;;;;;;;;;;;;0.68;100.00;101299.41;4940019;28;19954;-74
2023/12/18 04:11:49;;;;;;;;;;;;;;;0.94;100.00;101281.06;4956847;28;19918;-76
2023/12/18 04:14:18;;;;;;;;;;;;;;;0.86;100.00;101277.47;4932151;28;19950;-75
2023/12/18 04:16:43;;;;;;;;;;;;;;;0.36;100.00;101294.97;4937596;28;20299;-76
2023/12/18 04:19:08;;;;;;;;;;;;;;;0.99;100.00;101273.72;4611283;28;10000148;-74
2023/12/18 04:21:34;;;;;;;;;;;;;;;0.52;100.00;101294.69;4938779;28;19922;-76
2023/12/18 04:24:17;;;;;;;;;;;;;;;0.68;100.00;101285.25;4940784;28;19926;-76
2023/12/18 04:26:46;;;;;;;;;;;;;;;0.66;100.00;101289.34;4924401;28;19932;-76
2023/12/18 04:29:12;;;;;;;;;;;;;;;0.29;100.00;101305.56;4930587;28;20028;-76
2023/12/18 04:32:11;;;;;;;;;;;;;;;0.48;100.00;101296.25;4950828;28;19925;-77
2023/12/18 04:34:56;;;;;;;;;;;;;;;0.65;100.00;101274.28;4969431;28;19922;-73
2023/12/18 04:37:22;;;;;;;;;;;;;;;0.73;100.00;101281.22;4970575;28;19925;-76
2023/12/18 04:39:47;;;;;;;;;;;;;;;0.57;100.00;101291.56;4954509;28;19917;-76
2023/12/18 04:42:18;;;;;;;;;;;;;;;0.70;100.00;101285.28;4949781;28;19926;-78
2023/12/18 04:44:49;;;;;;;;;;;;;;;0.61;100.00;101288.38;4970942;28;19964;-78
2023/12/18 04:47:14;;;;;;;;;;;;;;;0.62;100.00;101287.53;4971442;28;19918;-77
2023/12/18 04:49:39;;;;;;;;;;;;;;;0.26;100.00;101305.47;4970927;28;19929;-79
2023/12/18 04:52:08;;;;;;;;;;;;;;;0.28;100.00;101304.72;4983281;28;19951;-75
2023/12/18 04:54:34;;;;;;;;;;;;;;;0.38;100.00;101301.72;4983413;28;20020;-75
2023/12/18 04:57:00;;;;;;;;;;;;;;;0.46;100.00;101309.47;4957318;28;20391;-75
2023/12/18 04:59:25;;;;;;;;;;;;;;;0.30;100.00;101314.78;4964582;28;19918;-78
2023/12/18 05:01:52;;;;;;;;;;;;;;;0.72;100.00;101288.69;4980965;28;20012;-74
2023/12/18 05:04:17;;;;;;;;;;;;;;;0.49;100.00;101289.59;4963027;28;19924;-77
2023/12/18 05:06:42;;;;;;;;;;;;;;;0.35;100.00;101300.78;4967708;28;19981;-75
2023/12/18 05:09:08;;;;;;;;;;;;;;;0.65;100.00;101286.81;4973802;28;19971;-79
2023/12/18 05:11:34;;;;;;;;;;;;;;;0.26;100.00;101298.81;4982442;28;19932;-76
2023/12/18 05:14:00;;;;;;;;;;;;;;;0.41;100.00;101290.97;4964856;28;19926;-76
2023/12/18 05:16:25;;;;;;;;;;;;;;;0.36;100.00;101305.81;4967361;28;20308;-77
2023/12/18 05:18:53;;;;;;;;;;;;;;;0.42;100.00;101307.69;4979989;28;20218;-77
2023/12/18 05:21:19;;;;;;;;;;;;;;;0.52;100.00;101314.69;4965424;28;19925;-76
2023/12/18 05:23:47;;;;;;;;;;;;;;;0.47;100.00;101306.19;4979058;28;19918;-77
2023/12/18 05:26:12;;;;;;;;;;;;;;;0.64;100.00;101310.09;4966459;28;20032;-80
2023/12/18 05:28:38;;;;;;;;;;;;;;;0.29;100.00;101318.06;4983130;28;20451;-84
2023/12/18 05:31:03;;;;;;;;;;;;;;;0.25;100.00;101323.75;4981711;28;19925;-81
2023/12/18 05:33:28;;;;;;;;;;;;;;;0.29;100.00;101325.56;4984516;28;20316;-81
2023/12/18 05:35:54;;;;;;;;;;;;;;;0.16;100.00;101320.94;4982692;28;20384;-79
2023/12/18 05:38:19;;;;;;;;;;;;;;;0.00;100.00;101335.38;4965934;28;20372;-78
2023/12/18 05:40:44;;;;;;;;;;;;;;;0.35;100.00;101316.63;4980983;28;20313;-81
2023/12/18 05:43:10;;;;;;;;;;;;;;;0.30;100.00;101328.13;4963682;28;19975;-83
2023/12/18 05:45:35;;;;;;;;;;;;;;;0.76;100.00;101320.53;4983551;28;20414;-77
2023/12/18 05:48:01;;;;;;;;;;;;;;;1.38;100.00;101300.84;4983321;28;20376;-77
2023/12/18 05:50:26;;;;;;;;;;;;;;;0.40;100.00;101331.78;4961955;28;20376;-75
2023/12/18 05:52:52;;;;;;;;;;;;;;;0.47;100.00;101321.22;4961722;28;19925;-81
2023/12/18 05:55:17;;;;;;;;;;;;;;;0.36;100.00;101317.47;4959678;28;19922;-78
2023/12/18 05:57:42;;;;;;;;;;;;;;;0.51;100.00;101276.34;4973825;28;20446;-78
2023/12/18 06:00:09;;;;;;;;;;;;;;;0.37;100.00;101281.69;4980548;28;19969;-78
2023/12/18 06:02:34;;;;;;;;;;;;;;;0.48;100.00;101275.38;4963079;28;20307;-79
2023/12/18 06:04:59;;;;;;;;;;;;;;;0.88;100.00;101263.38;4981585;28;20012;-78
2023/12/18 06:07:25;;;;;;;;;;;;;;;0.79;100.00;101266.41;4979381;28;20388;-79
2023/12/18 06:09:50;;;;;;;;;;;;;;;0.48;100.00;101277.88;4963947;28;19929;-79
2023/12/18 06:12:16;;;;;;;;;;;;;;;0.61;100.00;101283.34;4986961;28;20012;-78
2023/12/18 06:14:41;;;;;;;;;;;;;;;0.75;100.00;101278.81;4962310;28;20288;-79
2023/12/18 06:17:18;;;;;;;;;;;;;;;0.53;100.00;101302.25;4979589;28;19929;-78
2023/12/18 06:19:47;;;;;;;;;;;;;;;0.77;100.00;101284.72;4969972;28;19995;-79
2023/12/18 06:22:13;;;;;;;;;;;;;;;0.71;100.00;101297.00;4983827;28;20499;-77
2023/12/18 06:24:38;;;;;;;;;;;;;;;1.53;100.00;101286.25;4983789;28;19918;-80
2023/12/18 06:27:04;;;;;;;;;;;;;;;3.03;100.00;101271.00;4980389;28;19922;-78
2023/12/18 06:29:29;;;;;;;;;;;;;;;5.10;100.00;101260.75;4966499;28;19961;-77
2023/12/18 06:31:54;;;;;;;;;;;;;;;5.19;100.00;101305.38;4964564;28;20376;-80
2023/12/18 06:34:20;;;;;;;;;;;;;;;4.72;100.00;101347.44;4965239;28;20351;-79
2023/12/18 06:36:45;;;;;;;;;;;;;;;5.84;100.00;101356.81;4982625;28;19924;-76
2023/12/18 06:39:11;;;;;;;;;;;;;;;6.10;100.00;101379.00;4978697;28;19918;-78
2023/12/18 06:41:36;;;;;;;;;;;;;;;4.59;100.00;101426.09;4964564;28;19934;-76
2023/12/18 06:44:02;;;;;;;;;;;;;;;6.19;100.00;101410.25;4964701;28;19976;-76
2023/12/18 06:46:28;;;;;;;;;;;;;;;5.54;100.00;101439.56;4980833;28;19922;-77
2023/12/18 06:48:54;;;;;;;;;;;;;;;6.83;100.00;101422.81;4982301;28;19929;-78
2023/12/18 06:51:20;;;;;;;;;;;;;;;5.91;100.00;101462.03;4980913;28;19949;-77
2023/12/18 06:53:45;;;;;;;;;;;;;;;7.35;100.00;101424.16;4988136;28;19918;-78
2023/12/18 06:56:12;;;;;;;;;;;;;;;6.08;100.00;101493.44;4986642;28;19976;-82
2023/12/18 06:58:42;;;;;;;;;;;;;;;6.63;100.00;101482.38;4969511;28;19925;-79
2023/12/18 07:01:07;;;;;;;;;;;;;;;7.47;100.00;101477.34;4968044;28;20080;-78
2023/12/18 07:03:33;;;;;;;;;;;;;;;4.03;100.00;101577.56;4985546;28;20430;-81
2023/12/18 07:05:58;;;;;;;;;;;;;;;2.53;100.00;101600.22;4979666;28;19925;-79
2023/12/18 07:08:24;;;;;;;;;;;;;;;2.76;100.00;101586.66;4969718;28;20384;-77
2023/12/18 07:10:49;;;;;;;;;;;;;;;2.60;100.00;101576.97;4988547;28;20051;-78
2023/12/18 07:13:15;;;;;;;;;;;;;;;2.37;100.00;101582.97;4968071;28;19969;-76
2023/12/18 07:15:40;;;;;;;;;;;;;;;2.08;100.00;101583.72;4972501;28;19925;-77
2023/12/18 07:18:07;;;;;;;;;;;;;;;2.11;100.00;101578.78;4982213;28;20316;-76
2023/12/18 07:20:32;;;;;;;;;;;;;;;2.28;100.00;101568.47;4982358;28;19917;-76
2023/12/18 07:22:58;;;;;;;;;;;;;;;2.20;100.00;101564.88;4966578;28;19940;-80
2023/12/18 07:25:23;;;;;;;;;;;;;;;2.02;100.00;101560.97;4971249;28;19929;-78
2023/12/18 07:27:49;;;;;;;;;;;;;;;2.21;100.00;101548.19;4983819;28;19922;-75
2023/12/18 07:30:14;;;;;;;;;;;;;;;2.39;100.00;101542.06;4968663;28;19921;-77
2023/12/18 07:32:40;;;;;;;;;;;;;;;2.26;100.00;101531.59;4987523;28;19925;-79
2023/12/18 07:35:06;;;;;;;;;;;;;;;2.60;100.00;101524.28;4967057;28;19918;-76
2023/12/18 07:37:31;;;;;;;;;;;;;;;2.93;100.00;101510.16;4980269;28;20316;-78
2023/12/18 07:40:01;;;;;;;;;;;;;;;2.07;100.00;101530.19;4972018;28;19922;-77
2023/12/18 07:42:26;;;;;;;;;;;;;;;2.74;100.00;101514.63;4984959;28;19949;-74
2023/12/18 07:44:52;;;;;;;;;;;;;;;2.43;100.00;101522.94;4980925;28;19978;-76
2023/12/18 07:47:18;;;;;;;;;;;;;;;2.89;100.00;101515.94;4986227;28;20377;-78
2023/12/18 07:49:43;;;;;;;;;;;;;;;2.76;100.00;101518.88;4986119;28;19918;-76
2023/12/18 07:52:09;;;;;;;;;;;;;;;2.25;100.00;101534.94;4980238;28;20316;-75
2023/12/18 07:54:34;;;;;;;;;;;;;;;2.00;100.00;101540.81;4984596;28;19941;-75
2023/12/18 07:57:00;;;;;;;;;;;;;;;1.82;100.00;101540.28;4981968;28;19918;-75
2023/12/18 07:59:27;;;;;;;;;;;;;;;2.67;100.00;101506.91;4982918;28;19939;-75
2023/12/18 08:01:52;;;;;;;;;;;;;;;2.80;100.00;101503.09;4969953;28;19948;-76
2023/12/18 08:04:17;;;;;;;;;;;;;;;1.95;100.00;101531.47;4985991;28;20345;-79
2023/12/18 08:06:43;;;;;;;;;;;;;;;2.66;100.00;101499.34;4981196;28;20415;-75
2023/12/18 08:09:08;;;;;;;;;;;;;;;3.09;100.00;101488.84;4959009;28;19917;-77
2023/12/18 08:11:34;;;;;;;;;;;;;;;1.92;100.00;101539.75;4980897;28;19928;-80
2023/12/18 08:13:59;;;;;;;;;;;;;;;2.59;100.00;101505.00;4967672;28;19920;-80
2023/12/18 08:16:24;;;;;;;;;;;;;;;2.50;100.00;101505.59;4959991;28;19922;-79
2023/12/18 08:18:50;;;;;;;;;;;;;;;1.96;100.00;101518.13;4986451;28;20395;-76
2023/12/18 08:21:15;;;;;;;;;;;;;;;2.26;100.00;101499.00;4978978;28;20004;-79
2023/12/18 08:23:41;;;;;;;;;;;;;;;2.13;100.00;101504.44;4981421;28;20387;-75
2023/12/18 08:26:06;;;;;;;;;;;;;;;2.54;100.00;101484.81;4964559;28;20336;-76
2023/12/18 08:28:31;;;;;;;;;;;;;;;2.42;100.00;101496.13;4979950;28;19940;-77
2023/12/18 08:30:57;;;;;;;;;;;;;;;2.59;100.00;101480.75;4967127;28;19925;-76
2023/12/18 08:33:22;;;;;;;;;;;;;;;2.59;100.00;101475.72;4979763;28;19918;-81
2023/12/18 08:35:48;;;;;;;;;;;;;;;2.18;100.00;101485.41;4962019;28;19926;-76
2023/12/18 08:38:13;;;;;;;;;;;;;;;2.55;100.00;101470.59;4978319;28;20459;-76
2023/12/18 08:40:39;;;;;;;;;;;;;;;2.62;100.00;101462.41;4980168;28;19977;-75
2023/12/18 08:43:04;;;;;;;;;;;;;;;2.56;100.00;101465.63;4980148;28;19917;-75
2023/12/18 08:45:29;;;;;;;;;;;;;;;2.46;100.00;101467.81;4962094;28;20000;-75
2023/12/18 08:47:59;;;;;;;;;;;;;;;2.24;100.00;101466.34;4984935;28;19953;-76
2023/12/18 08:50:24;;;;;;;;;;;;;;;2.84;100.00;101437.09;4963274;28;19917;-76
2023/12/18 08:52:49;;;;;;;;;;;;;;;1.92;100.00;101463.69;4981172;28;19924;-78
2023/12/18 08:55:15;;;;;;;;;;;;;;;2.14;100.00;101448.50;4961361;28;20337;-77
2023/12/18 08:57:40;;;;;;;;;;;;;;;2.57;100.00;101423.81;4975243;28;20460;-76
2023/12/18 09:00:06;;;;;;;;;;;;;;;2.27;100.00;101431.34;4982658;28;19961;-76
2023/12/18 09:02:31;;;;;;;;;;;;;;;2.52;100.00;101417.78;4963507;28;20012;-77
2023/12/18 09:04:57;;;;;;;;;;;;;;;2.72;100.00;101404.13;4981578;28;19925;-77
2023/12/18 09:07:22;;;;;;;;;;;;;;;2.40;100.00;101403.25;4965146;28;20021;-76
2023/12/18 09:09:47;;;;;;;;;;;;;;;2.55;100.00;101405.34;4984880;28;19972;-80
2023/12/18 09:12:13;;;;;;;;;;;;;;;2.82;100.00;101386.00;4961946;28;20344;-75
2023/12/18 09:14:38;;;;;;;;;;;;;;;2.64;100.00;101395.53;4981784;28;20385;-76
2023/12/18 09:17:03;;;;;;;;;;;;;;;2.95;100.00;101365.38;4979316;28;19921;-76
2023/12/18 09:19:29;;;;;;;;;;;;;;;2.40;100.00;101383.19;4983644;28;19917;-77
2023/12/18 09:21:55;;;;;;;;;;;;;;;2.43;100.00;101369.88;4981117;28;20408;-79
2023/12/18 09:24:20;;;;;;;;;;;;;;;2.41;100.00;101361.47;4982748;28;20308;-76
2023/12/18 09:26:48;;;;;;;;;;;;;;;2.63;100.00;101356.22;4981065;28;19929;-76
2023/12/18 09:29:13;;;;;;;;;;;;;;;2.60;100.00;101343.56;4976780;28;19918;-77
2023/12/18 09:31:38;;;;;;;;;;;;;;;2.73;100.00;101335.56;4983141;28;19925;-76
2023/12/18 09:34:04;;;;;;;;;;;;;;;3.05;100.00;101324.63;4962099;28;20344;-76
2023/12/18 09:36:29;;;;;;;;;;;;;;;2.90;100.00;101323.41;4984914;28;20380;-77
2023/12/18 09:38:54;;;;;;;;;;;;;;;2.90;100.00;101311.72;4979926;28;20400;-77
2023/12/18 09:41:23;;;;;;;;;;;;;;;3.11;100.00;101294.63;4966960;28;20353;-77
2023/12/18 09:43:52;;;;;;;;;;;;;;;3.21;100.00;101280.63;4967397;28;19918;-76
2023/12/18 09:46:20;;;;;;;;;;;;;;;3.34;100.00;101270.91;4980993;28;19922;-76
2023/12/18 09:48:46;;;;;;;;;;;;;;;3.41;100.00;101260.13;4982352;28;20450;-76
2023/12/18 09:51:15;;;;;;;;;;;;;;;3.02;100.00;101268.44;4981158;28;19917;-78
2023/12/18 09:53:40;;;;;;;;;;;;;;;3.24;100.00;101256.44;4984538;28;19941;-77
2023/12/18 09:56:06;;;;;;;;;;;;;;;3.49;100.00;101246.06;4961544;28;20289;-76
2023/12/18 09:58:32;;;;;;;;;;;;;;;3.82;100.00;101235.00;4961869;28;20326;-76
2023/12/18 10:00:58;;;;;;;;;;;;;;;3.81;100.00;101231.63;4980107;28;19918;-80
2023/12/18 10:03:23;;;;;;;;;;;;;;;4.00;100.00;101220.28;4966054;28;20001;-76
2023/12/18 10:05:48;;;;;;;;;;;;;;;3.89;100.00;101229.25;4981951;28;19997;-76
2023/12/18 10:08:15;;;;;;;;;;;;;;;3.95;100.00;101224.34;4980919;28;20366;-76
2023/12/18 10:10:43;;;;;;;;;;;;;;;3.96;100.00;101226.88;4983571;28;19963;-75
2023/12/18 10:13:11;;;;;;;;;;;;;;;4.14;100.00;101221.38;4960994;28;19920;-76
2023/12/18 10:15:39;;;;;;;;;;;;;;;4.13;100.00;101222.19;4979211;28;19918;-77
2023/12/18 10:18:05;;;;;;;;;;;;;;;4.04;100.00;101232.09;4979050;28;19929;-76
2023/12/18 10:20:31;;;;;;;;;;;;;;;4.47;100.00;101219.44;4974916;28;19918;-75
2023/12/18 10:22:58;;;;;;;;;;;;;;;4.21;100.00;101221.50;4977254;28;19985;-75
2023/12/18 10:25:24;;;;;;;;;;;;;;;4.53;100.00;101217.00;4636757;28;10000129;-76
2023/12/18 10:27:53;;;;;;;;;;;;;;;4.82;100.00;101212.41;4980639;28;19929;-75
2023/12/18 10:30:18;;;;;;;;;;;;;;;4.68;100.00;101219.75;4979555;28;19921;-74
2023/12/18 10:32:43;;;;;;;;;;;;;;;4.62;100.00;101233.91;4982770;28;20376;-75
2023/12/18 10:35:09;;;;;;;;;;;;;;;4.60;100.00;101238.94;4982749;28;20056;-74
2023/12/18 10:37:35;;;;;;;;;;;;;;;4.82;100.00;101233.44;4966908;28;19922;-74
2023/12/18 10:40:04;;;;;;;;;;;;;;;4.80;100.00;101237.59;4985575;28;20024;-74
2023/12/18 10:42:36;;;;;;;;;;;;;;;4.96;100.00;101221.88;4984118;28;19921;-74
2023/12/18 10:45:08;;;;;;;;;;;;;;;4.72;100.00;101220.66;4979935;28;19922;-78
2023/12/18 10:47:34;;;;;;;;;;;;;;;5.24;100.00;101202.97;4965203;28;20009;-77
2023/12/18 10:50:00;;;;;;;;;;;;;;;5.15;100.00;101196.09;4972293;28;20058;-74
2023/12/18 10:52:32;;;;;;;;;;;;;;;4.84;100.00;101203.22;4965419;28;19918;-74
2023/12/18 10:55:02;;;;;;;;;;;;;;;5.00;100.00;101188.34;4982548;28;19914;-74
2023/12/18 10:57:28;;;;;;;;;;;;;;;4.96;100.00;101195.84;4985328;28;19918;-77
2023/12/18 10:59:55;;;;;;;;;;;;;;;4.92;100.00;101192.44;4985064;28;19926;-74
2023/12/18 11:02:21;;;;;;;;;;;;;;;5.10;100.00;101180.09;4986285;28;20387;-74
2023/12/18 11:04:50;;;;;;;;;;;;;;;5.24;100.00;101182.78;4986901;28;19918;-75
2023/12/18 11:07:21;;;;;;;;;;;;;;;5.40;100.00;101183.81;4962385;28;19918;-77
2023/12/18 11:09:47;;;;;;;;;;;;;;;5.52;100.00;101171.38;4980825;28;19918;-77
2023/12/18 11:12:14;;;;;;;;;;;;;;;5.46;100.00;101178.84;4963288;28;20304;-74
2023/12/18 11:14:59;;;;;;;;;;;;;;;5.65;100.00;101180.75;4964871;28;19925;-75
2023/12/18 11:17:43;;;;;;;;;;;;;;;5.64;100.00;101174.03;4984197;28;20319;-75
2023/12/18 11:20:15;;;;;;;;;;;;;;;5.72;100.00;101163.22;4981211;28;19932;-74
2023/12/18 11:22:47;;;;;;;;;;;;;;;5.66;100.00;101187.50;4979083;28;20380;-77
2023/12/18 11:25:17;;;;;;;;;;;;;;;6.08;100.00;101172.84;4981207;28;19918;-75
2023/12/18 11:27:43;;;;;;;;;;;;;;;5.74;100.00;101183.41;4968756;28;19922;-76
2023/12/18 11:30:27;;;;;;;;;;;;;;;5.81;100.00;101172.53;4985641;28;19929;-75
2023/12/18 11:32:53;;;;;;;;;;;;;;;5.97;100.00;101160.13;4984544;28;20360;-75
2023/12/18 11:35:25;;;;;;;;;;;;;;;6.04;100.00;101164.38;4982248;28;19918;-75
2023/12/18 11:37:50;;;;;;;;;;;;;;;6.07;100.00;101163.56;4968563;28;19917;-75
2023/12/18 11:40:31;;;;;;;;;;;;;;;6.15;100.00;101167.03;4971359;28;19918;-75
2023/12/18 11:42:57;;;;;;;;;;;;;;;6.24;100.00;101169.63;4983539;28;20048;-76
2023/12/18 11:45:25;;;;;;;;;;;;;;;6.13;100.00;101182.16;4985850;28;20083;-75
2023/12/18 11:47:53;;;;;;;;;;;;;;;6.25;100.00;101176.38;4961951;28;19918;-74
2023/12/18 11:50:20;;;;;;;;;;;;;;;6.21;100.00;101178.84;4982074;28;19972;-75
2023/12/18 11:52:48;;;;;;;;;;;;;;;6.31;100.00;101158.75;4982686;28;20284;-74
2023/12/18 11:55:16;;;;;;;;;;;;;;;6.42;100.00;101153.78;4966332;28;20020;-75
2023/12/18 11:57:43;;;;;;;;;;;;;;;6.59;100.00;101153.09;4964962;28;19961;-76
2023/12/18 12:00:09;;;;;;;;;;;;;;;6.52;100.00;101163.09;4982780;28;19957;-75
2023/12/18 12:02:35;;;;;;;;;;;;;;;6.41;100.00;101167.25;4985644;28;19980;-75
2023/12/18 12:05:00;;;;;;;;;;;;;;;6.60;100.00;101147.19;4964551;28;19953;-75
2023/12/18 12:07:26;;;;;;;;;;;;;;;6.75;100.00;101142.25;4978958;28;19925;-75
2023/12/18 12:09:58;;;;;;;;;;;;;;;6.80;100.00;101143.09;4982860;28;19949;-75
2023/12/18 12:12:24;;;;;;;;;;;;;;;7.03;100.00;101128.06;4968007;28;19924;-75
2023/12/18 12:14:51;;;;;;;;;;;;;;;6.99;100.00;101132.25;4961676;28;19917;-78
2023/12/18 12:17:19;;;;;;;;;;;;;;;7.17;100.00;101128.97;4965565;28;20376;-75
2023/12/18 12:19:44;;;;;;;;;;;;;;;7.06;100.00;101147.44;4962856;28;19961;-75
2023/12/18 12:22:12;;;;;;;;;;;;;;;7.23;100.00;101149.22;4987909;28;19957;-77
2023/12/18 12:24:39;;;;;;;;;;;;;;;7.39;100.00;101145.09;4964585;28;20020;-76
2023/12/18 12:27:05;;;;;;;;;;;;;;;7.36;100.00;101156.03;4985048;28;19964;-75
2023/12/18 12:29:30;;;;;;;;;;;;;;;7.15;100.00;101160.16;4984410;28;20348;-75
2023/12/18 12:31:55;;;;;;;;;;;;;;;7.23;100.00;101146.69;4962846;28;20318;-75